createdAt,value
2019-03-24T00:01:41.408Z,9.82
2019-03-24T00:06:45.410Z,10.67
2019-03-24T00:11:53.886Z,9.29
2019-03-24T00:17:01.978Z,9.52
2019-03-24T00:22:10.230Z,9.29
2019-03-24T00:27:18.591Z,9.09
2019-03-24T00:32:26.805Z,9.44
2019-03-24T00:37:34.897Z,9.28
2019-03-24T00:42:43.001Z,9.47
2019-03-24T00:47:51.082Z,8.98
2019-03-24T00:52:59.311Z,8.73
2019-03-24T00:58:07.403Z,9.25
2019-03-24T01:03:15.589Z,9.44
2019-03-24T01:08:23.704Z,8.89
2019-03-24T01:13:31.769Z,9.11
2019-03-24T01:18:39.835Z,9.07
2019-03-24T01:23:47.953Z,9.55
2019-03-24T01:28:56.150Z,9.79
2019-03-24T01:34:04.244Z,9.63
2019-03-24T01:39:12.361Z,8.38
2019-03-24T01:44:20.621Z,8.80
2019-03-24T01:49:28.838Z,9.35
2019-03-24T01:54:37.082Z,10.03
2019-03-24T01:59:45.692Z,9.81
2019-03-24T02:04:53.917Z,9.74
2019-03-24T02:10:02.248Z,8.51
2019-03-24T02:15:10.715Z,8.23
2019-03-24T02:20:18.909Z,8.90
2019-03-24T02:25:28.053Z,7.84
2019-03-24T02:30:36.308Z,8.13
2019-03-24T02:35:45.026Z,10.24
2019-03-24T02:40:53.879Z,12.59
2019-03-24T02:46:02.130Z,8.28
2019-03-24T02:51:10.291Z,7.92
2019-03-24T02:56:18.711Z,9.09
2019-03-24T03:01:27.425Z,12.26
2019-03-24T03:06:36.162Z,11.35
2019-03-24T03:11:44.493Z,10.99
2019-03-24T03:16:53.822Z,11.86
2019-03-24T03:22:01.940Z,8.99
2019-03-24T03:27:09.998Z,8.95
2019-03-24T03:32:18.132Z,9.60
2019-03-24T03:37:26.441Z,9.69
2019-03-24T03:42:34.598Z,9.31
2019-03-24T03:47:42.673Z,9.26
2019-03-24T03:52:50.755Z,8.83
2019-03-24T03:57:58.931Z,8.77
2019-03-24T04:03:07.048Z,8.14
2019-03-24T04:08:15.190Z,8.88
2019-03-24T04:13:23.297Z,8.54
2019-03-24T04:18:31.375Z,8.36
2019-03-24T04:23:39.525Z,8.26
2019-03-24T04:28:47.834Z,8.69
2019-03-24T04:33:55.981Z,9.06
2019-03-24T04:39:04.266Z,8.98
2019-03-24T04:44:12.462Z,8.90
2019-03-24T04:49:20.725Z,7.81
2019-03-24T04:54:28.930Z,8.19
2019-03-24T04:59:37.134Z,7.86
2019-03-24T05:04:45.419Z,8.98
2019-03-24T05:09:54.510Z,8.28
2019-03-24T05:15:01.485Z,8.73
2019-03-24T05:20:09.860Z,8.31
2019-03-24T05:25:18.141Z,8.71
2019-03-24T05:30:26.433Z,8.58
2019-03-24T05:35:34.856Z,9.01
2019-03-24T05:40:43.091Z,9.49
2019-03-24T05:45:51.507Z,9.70
2019-03-24T05:50:59.746Z,8.69
2019-03-24T05:56:07.933Z,9.78
2019-03-24T06:01:17.277Z,8.83
2019-03-24T06:06:25.361Z,9.53
2019-03-24T06:11:33.603Z,8.63
2019-03-24T06:16:42.029Z,9.21
2019-03-24T06:21:50.269Z,8.06
2019-03-24T06:26:58.597Z,9.00
2019-03-24T06:32:06.781Z,8.42
2019-03-24T06:37:14.987Z,8.61
2019-03-24T06:42:23.175Z,8.83
2019-03-24T06:47:31.876Z,8.16
2019-03-24T06:52:40.166Z,9.23
2019-03-24T06:57:48.788Z,8.11
2019-03-24T07:02:57.102Z,7.97
2019-03-24T07:08:05.401Z,8.05
2019-03-24T07:13:13.792Z,8.39
2019-03-24T07:18:22.142Z,8.30
2019-03-24T07:23:30.542Z,8.79
2019-03-24T07:28:38.894Z,8.69
2019-03-24T07:33:47.153Z,8.15
2019-03-24T07:38:55.389Z,8.67
2019-03-24T07:44:03.626Z,8.43
2019-03-24T07:49:11.986Z,8.05
2019-03-24T07:54:20.754Z,8.14
2019-03-24T07:59:28.989Z,7.75
2019-03-24T08:04:37.114Z,8.55
2019-03-24T08:09:45.327Z,7.37
2019-03-24T08:14:53.562Z,7.33
2019-03-24T08:20:01.848Z,7.40
2019-03-24T08:25:10.595Z,7.39
2019-03-24T08:30:19.507Z,7.49
2019-03-24T08:35:27.892Z,7.20
2019-03-24T08:40:36.228Z,6.97
2019-03-24T08:45:45.114Z,7.65
2019-03-24T08:50:53.451Z,8.25
2019-03-24T08:56:01.622Z,6.33
2019-03-24T09:01:02.050Z,6.96
2019-03-24T09:06:10.514Z,7.06
2019-03-24T09:11:18.904Z,6.80
2019-03-24T09:16:27.314Z,7.28
2019-03-24T09:21:35.938Z,6.89
2019-03-24T09:26:45.170Z,7.18
2019-03-24T09:31:53.515Z,5.86
2019-03-24T09:37:02.400Z,7.11
2019-03-24T09:42:10.798Z,7.04
2019-03-24T09:47:19.118Z,7.03
2019-03-24T09:52:27.450Z,8.13
2019-03-24T09:57:36.247Z,7.11
2019-03-24T10:02:45.547Z,6.64
2019-03-24T10:07:53.704Z,6.31
2019-03-24T10:13:02.097Z,6.70
2019-03-24T10:18:10.225Z,6.52
2019-03-24T10:23:18.390Z,5.49
2019-03-24T10:28:26.848Z,6.59
2019-03-24T10:33:34.939Z,6.31
2019-03-24T10:38:43.107Z,5.64
2019-03-24T10:43:51.733Z,6.01
2019-03-24T10:48:59.981Z,5.56
2019-03-24T10:54:08.345Z,6.44
2019-03-24T10:59:17.447Z,5.77
2019-03-24T11:04:26.259Z,5.62
2019-03-24T11:09:35.658Z,5.69
2019-03-24T11:14:44.862Z,7.01
2019-03-24T11:19:53.854Z,6.61
2019-03-24T11:25:06.007Z,7.55
2019-03-24T11:30:04.785Z,5.40
2019-03-24T11:35:12.895Z,4.92
2019-03-24T11:40:21.026Z,5.46
2019-03-24T11:45:29.407Z,5.03
2019-03-24T11:50:37.681Z,4.70
2019-03-24T11:55:45.974Z,5.18
2019-03-24T12:00:54.261Z,5.82
2019-03-24T12:06:13.653Z,4.48
2019-03-24T12:11:10.221Z,3.72
2019-03-24T12:16:18.601Z,8.21
2019-03-24T12:21:27.143Z,6.94
2019-03-24T12:26:36.142Z,12.25
2019-03-24T12:31:45.018Z,4.52
2019-03-24T12:36:53.392Z,6.09
2019-03-24T12:42:01.854Z,4.25
2019-03-24T12:47:10.116Z,4.45
2019-03-24T12:52:18.427Z,3.57
2019-03-24T12:57:26.903Z,3.91
2019-03-24T13:02:35.621Z,3.89
2019-03-24T13:07:43.991Z,3.60
2019-03-24T13:12:52.366Z,4.91
2019-03-24T13:18:00.751Z,3.68
2019-03-24T13:23:09.090Z,3.59
2019-03-24T13:28:17.522Z,3.70
2019-03-24T13:33:25.970Z,3.29
2019-03-24T13:38:34.376Z,3.45
2019-03-24T13:43:42.652Z,3.62
2019-03-24T13:48:51.001Z,3.45
2019-03-24T13:53:59.458Z,6.33
2019-03-24T13:59:07.912Z,4.76
2019-03-24T14:04:17.864Z,4.14
2019-03-24T14:09:22.504Z,3.08
2019-03-24T14:14:30.983Z,3.28
2019-03-24T14:19:40.132Z,3.36
2019-03-24T14:24:48.755Z,3.62
2019-03-24T14:29:57.362Z,3.21
2019-03-24T14:35:05.795Z,4.09
2019-03-24T14:40:15.195Z,4.67
2019-03-24T14:45:23.682Z,3.99
2019-03-24T14:50:32.293Z,4.47
2019-03-24T14:55:41.606Z,3.62
2019-03-24T15:00:50.242Z,3.80
2019-03-24T15:05:59.071Z,4.55
2019-03-24T15:11:08.108Z,5.54
2019-03-24T15:16:07.848Z,6.24
2019-03-24T15:21:16.203Z,4.34
2019-03-24T15:26:24.944Z,6.98
2019-03-24T15:31:33.506Z,4.52
2019-03-24T15:36:46.478Z,3.84
2019-03-24T15:41:45.011Z,5.65
2019-03-24T15:46:53.380Z,4.03
2019-03-24T15:52:01.941Z,4.07
2019-03-24T15:57:10.369Z,4.62
2019-03-24T16:02:18.771Z,4.59
2019-03-24T16:07:27.179Z,10.62
2019-03-24T16:12:35.814Z,5.96
2019-03-24T16:17:44.073Z,5.50
2019-03-24T16:22:52.438Z,4.71
2019-03-24T16:28:00.784Z,4.64
2019-03-24T16:33:09.037Z,4.77
2019-03-24T16:38:17.410Z,4.89
2019-03-24T16:43:25.688Z,4.95
2019-03-24T16:48:37.008Z,5.10
2019-03-24T16:53:41.407Z,6.24
2019-03-24T16:58:49.726Z,5.41
2019-03-24T17:03:57.896Z,5.97
2019-03-24T17:09:06.118Z,5.07
2019-03-24T17:14:14.490Z,5.60
2019-03-24T17:19:22.767Z,5.42
2019-03-24T17:24:31.324Z,6.45
2019-03-24T17:29:39.683Z,6.30
2019-03-24T17:34:48.060Z,6.27
2019-03-24T17:39:56.441Z,6.46
2019-03-24T17:45:04.962Z,5.73
2019-03-24T17:50:13.434Z,5.95
2019-03-24T17:55:27.690Z,6.96
2019-03-24T18:00:29.728Z,6.20
2019-03-24T18:05:38.274Z,6.13
2019-03-24T18:10:46.709Z,6.32
2019-03-24T18:15:55.120Z,6.52
2019-03-24T18:21:03.371Z,6.32
2019-03-24T18:26:11.508Z,5.89
2019-03-24T18:31:19.631Z,6.00
2019-03-24T18:36:27.971Z,4.96
2019-03-24T18:41:36.275Z,4.92
2019-03-24T18:46:44.590Z,5.10
2019-03-24T18:51:52.829Z,5.30
2019-03-24T18:57:01.458Z,4.43
2019-03-24T19:02:09.660Z,4.82
2019-03-24T19:07:17.833Z,3.88
2019-03-24T19:12:26.119Z,4.74
2019-03-24T19:17:34.374Z,4.36
2019-03-24T19:22:42.559Z,3.89
2019-03-24T19:27:50.761Z,3.97
2019-03-24T19:32:59.069Z,3.89
2019-03-24T19:38:07.705Z,4.30
2019-03-24T19:43:16.170Z,4.05
2019-03-24T19:48:24.721Z,4.02
2019-03-24T19:53:33.426Z,4.46
2019-03-24T19:58:41.826Z,3.97
2019-03-24T20:03:50.254Z,4.11
2019-03-24T20:08:59.711Z,4.90
2019-03-24T20:14:08.218Z,4.43
2019-03-24T20:19:16.678Z,5.35
2019-03-24T20:24:25.889Z,4.72
2019-03-24T20:29:34.850Z,4.94
2019-03-24T20:34:43.582Z,4.94
2019-03-24T20:39:52.142Z,5.18
2019-03-24T20:45:01.221Z,6.03
2019-03-24T20:50:10.524Z,4.79
2019-03-24T20:55:19.193Z,5.23
2019-03-24T21:00:27.595Z,5.02
2019-03-24T21:05:36.684Z,5.39
2019-03-24T21:10:44.950Z,5.18
2019-03-24T21:15:53.146Z,4.66
2019-03-24T21:21:01.531Z,5.17
2019-03-24T21:26:11.317Z,4.76
2019-03-24T21:31:18.244Z,5.64
2019-03-24T21:36:26.898Z,4.87
2019-03-24T21:41:35.248Z,5.18
2019-03-24T21:46:43.918Z,5.20
2019-03-24T21:51:52.458Z,5.17
2019-03-24T21:57:00.740Z,5.10
2019-03-24T22:02:09.109Z,5.35
2019-03-24T22:07:17.637Z,5.04
2019-03-24T22:12:25.814Z,4.89
2019-03-24T22:17:34.095Z,4.79
2019-03-24T22:22:42.513Z,5.18
2019-03-24T22:27:50.837Z,5.32
2019-03-24T22:32:59.775Z,5.07
2019-03-24T22:38:08.067Z,5.13
2019-03-24T22:43:16.586Z,5.34
2019-03-24T22:48:24.825Z,5.42
2019-03-24T22:53:33.050Z,5.54
2019-03-24T22:58:41.389Z,5.74
2019-03-24T23:03:49.590Z,5.33
2019-03-24T23:08:58.253Z,6.19
2019-03-24T23:14:06.727Z,6.15
2019-03-24T23:19:14.937Z,6.28
2019-03-24T23:24:23.113Z,6.22
2019-03-24T23:29:31.495Z,6.49
2019-03-24T23:34:39.742Z,6.09
2019-03-24T23:39:48.141Z,6.31
2019-03-24T23:44:56.468Z,6.52
2019-03-24T23:50:04.896Z,6.75
2019-03-24T23:55:13.311Z,6.39
